Klawock, AK

9:12 PM AKDT on October 15, 2019 (GMT -0800)
Klawock

Weather History for PAKW - September, 2019

Change the Weather History Date:

Saturday, September 21, 2019

  Actual Average Record
Temperature  
Mean Temperature 56 °F -  
Max Temperature 59 °F 56 °F 70 °F (2012)
Min Temperature 52 °F 44 °F 36 °F (2010)
Degree Days  
Heating Degree Days 10    
Growing Degree Days 6 (Base 50)    
Moisture  
Dew Point 54 °F    
Average Humidity 92    
Maximum Humidity 100    
Minimum Humidity 87    
Precipitation  
Precipitation 0.63 in - - ()
Sea Level Pressure  
Sea Level Pressure 29.58 in    
Wind  
Wind Speed 8 mph (South)    
Max Wind Speed 14 mph    
Max Gust Speed 21 mph    
Visibility 6 miles    
Events Fog , Rain    
Averages and records for this station are not official NWS values.
T = Trace of Precipitation, MM = Missing Value Source: NWS Daily Summary

Daily Weather History Graph

Daily Weather History Graph

Search for Another Location

Airport or City:

Astronomy

Sep. 21, 2019 Rise Set
Actual Time 6:35 AM AKDT 6:53 PM AKDT
Civil Twilight 5:58 AM AKDT 7:30 PM AKDT
Nautical Twilight 5:14 AM AKDT 8:14 PM AKDT
Astronomical Twilight 4:28 AM AKDT 9:00 PM AKDT
Moon 10:26 PM AKDT (9/21) 2:59 PM AKDT (9/21)
Length of Visible Light 13h 31m
Length of Day
12h 18m
Waning Gibbous, 53% of the Moon is Illuminated
Sep 21
Waning Gibbous
Sep 21
Last Quarter
Sep 28
New
Oct 5
First Quarter
Oct 13
Full

Hourly Weather History & Observations

Time (AKDT) Temp. Dew Point Humidity Pressure Visibility Wind Dir Wind Speed Gust Speed Precip Events Conditions
1:09 AM 59.0 °F 57.0 °F 93% 29.53 in 2.5 mi SSE 10.4 mph 18.4 mph 0.03 in Rain Light Rain
1:34 AM 59.0 °F 57.0 °F 93% 29.52 in 4.0 mi SSE 9.2 mph - 0.07 in Rain Light Rain
1:53 AM 59.0 °F 57.0 °F 93% 29.52 in 3.0 mi SSE 8.1 mph - 0.08 in Rain Light Rain
2:11 AM 59.0 °F 57.0 °F 93% 29.52 in 2.0 mi South 9.2 mph 18.4 mph 0.03 in Rain Rain
2:30 AM 59.0 °F 57.0 °F 93% 29.51 in 4.0 mi South 10.4 mph - 0.05 in Rain Light Rain
2:51 AM 59.0 °F 55.4 °F 88% 29.51 in 2.5 mi SSE 13.8 mph - 0.07 in Rain Rain
2:53 AM 59.0 °F 55.9 °F 90% 29.51 in 2.5 mi SSE 10.4 mph - 0.08 in Rain Rain
3:07 AM 59.0 °F 55.9 °F 90% 29.51 in 5.0 mi SSE 11.5 mph 20.7 mph 0.01 in Rain Light Rain
3:20 AM 59.0 °F 55.9 °F 90% 29.51 in 2.5 mi South 9.2 mph - 0.04 in Rain Light Rain
3:27 AM 59.0 °F 57.0 °F 93% 29.51 in 4.0 mi South 8.1 mph - 0.05 in Rain Light Rain
3:35 AM 59.0 °F 57.0 °F 93% 29.51 in 1.8 mi South 8.1 mph - 0.07 in Rain Rain
3:51 AM 57.2 °F 57.2 °F 100% 29.52 in 2.0 mi SSW 6.9 mph - 0.11 in Rain Rain
3:53 AM 57.9 °F 57.0 °F 97% 29.52 in 2.0 mi SSW 6.9 mph - 0.11 in Rain Rain
4:11 AM 57.9 °F 57.0 °F 97% 29.51 in 7.0 mi South 5.8 mph - 0.02 in Rain Light Rain
4:42 AM 57.9 °F 55.9 °F 93% 29.52 in 3.0 mi SSW 12.7 mph 17.3 mph 0.04 in Rain Light Rain
4:45 AM 57.9 °F 55.9 °F 93% 29.52 in 2.0 mi SSW 12.7 mph 17.3 mph 0.05 in Rain Rain
4:49 AM 57.2 °F 55.4 °F 94% 29.52 in 3.0 mi SSW 11.5 mph - 0.05 in Rain Light Rain
4:53 AM 57.9 °F 55.9 °F 93% 29.52 in 5.0 mi SSW 10.4 mph - 0.05 in Rain Light Rain
5:36 AM 57.0 °F 55.0 °F 93% 29.52 in 7.0 mi SW 5.8 mph - 0.00 in Rain Light Rain
5:53 AM 57.0 °F 55.0 °F 93% 29.52 in 7.0 mi SW 5.8 mph - 0.00 in   Overcast
6:53 AM 57.0 °F 54.0 °F 89% 29.52 in 10.0 mi South 8.1 mph - N/A   Overcast
7:53 AM 57.0 °F 54.0 °F 89% 29.53 in 10.0 mi South 5.8 mph - N/A   Overcast
8:10 AM 57.0 °F 53.1 °F 87% 29.53 in 10.0 mi South 5.8 mph - N/A   Overcast
8:53 AM 57.0 °F 53.1 °F 87% 29.54 in 10.0 mi South 5.8 mph - N/A   Overcast
10:51 AM 57.2 °F 53.6 °F 88% 29.53 in 7.0 mi SSE 9.2 mph - 0.00 in Rain Light Rain
10:53 AM 57.0 °F 54.0 °F 89% 29.53 in 7.0 mi SSE 8.1 mph - 0.00 in Rain Light Rain
11:02 AM 55.9 °F 54.0 °F 93% 29.53 in 1.8 mi SE 6.9 mph - 0.02 in Rain Rain
11:09 AM 55.9 °F 54.0 °F 93% 29.53 in 3.0 mi South 5.8 mph - 0.02 in Rain Light Rain
11:43 AM 57.0 °F 55.0 °F 93% 29.53 in 2.0 mi SSW 5.8 mph - 0.05 in Rain Light Rain
11:51 AM 57.2 °F 55.4 °F 94% 29.53 in 10.0 mi SSW 5.8 mph - 0.05 in Rain Light Rain
11:53 AM 57.9 °F 55.0 °F 90% 29.53 in 10.0 mi SSW 5.8 mph - 0.05 in   Overcast
1:11 PM 55.9 °F 54.0 °F 93% 29.57 in 9.0 mi SSE 4.6 mph - 0.02 in Rain Light Rain
1:44 PM 57.9 °F 55.0 °F 90% 29.57 in 10.0 mi SW 9.2 mph - 0.02 in Rain Light Rain
1:48 PM 57.2 °F 55.4 °F 94% 29.58 in 10.0 mi SW 6.9 mph - 0.02 in   Overcast
1:51 PM 57.2 °F 55.4 °F 94% 29.58 in 10.0 mi SSW 10.4 mph - 0.02 in   Overcast
1:53 PM 57.0 °F 55.0 °F 93% 29.58 in 10.0 mi Variable 6.9 mph - 0.02 in   Overcast
2:04 PM 57.9 °F 55.0 °F 90% 29.58 in 10.0 mi SW 8.1 mph - N/A   Overcast
2:24 PM 57.9 °F 55.0 °F 90% 29.59 in 10.0 mi SSW 5.8 mph - N/A   Overcast
2:53 PM 57.0 °F 53.1 °F 87% 29.60 in 10.0 mi Variable 3.5 mph - N/A   Overcast
4:12 PM 55.9 °F 53.1 °F 90% 29.62 in 2.5 mi SSW 5.8 mph - 0.01 in Rain Light Rain
4:15 PM 55.9 °F 53.1 °F 90% 29.62 in 0.8 mi SW 4.6 mph - 0.06 in Rain Light Rain
4:25 PM 55.0 °F 54.0 °F 96% 29.63 in 0.5 mi Variable 3.5 mph - 0.13 in Fog , Rain Rain
4:31 PM 55.0 °F 53.1 °F 93% 29.63 in 1.0 mi SSW 10.4 mph - 0.16 in Rain Heavy Rain
4:36 PM 55.9 °F 54.0 °F 93% 29.63 in 1.5 mi SSW 10.4 mph - 0.16 in Rain Light Rain
4:38 PM 55.9 °F 54.0 °F 93% 29.63 in 4.0 mi SSW 8.1 mph - 0.16 in Rain Light Rain
4:41 PM 55.9 °F 54.0 °F 93% 29.63 in 9.0 mi SSW 9.2 mph - 0.16 in Rain Light Rain
4:47 PM 55.4 °F 53.6 °F 94% 29.63 in 10.0 mi SSW 5.8 mph - 0.16 in   Mostly Cloudy
4:48 PM 55.9 °F 53.1 °F 90% 29.64 in 10.0 mi SSW 6.9 mph - 0.16 in   Mostly Cloudy
7:53 PM 54.0 °F 51.1 °F 90% 29.67 in 6.0 mi Variable 4.6 mph - 0.01 in Rain Light Rain
7:58 PM 53.1 °F 51.1 °F 93% 29.68 in 1.8 mi WSW 5.8 mph - 0.04 in Rain Heavy Rain
8:02 PM 53.1 °F 51.1 °F 93% 29.68 in 1.2 mi West 5.8 mph - 0.05 in Rain Heavy Rain
8:07 PM 53.1 °F 51.1 °F 93% 29.68 in 2.0 mi Variable 4.6 mph - 0.05 in Rain Light Rain
8:14 PM 52.0 °F 51.1 °F 97% 29.69 in 6.0 mi SW 3.5 mph - 0.06 in Rain Light Rain
8:22 PM 52.0 °F 50.0 °F 93% 29.71 in 5.0 mi South 5.8 mph - 0.06 in Rain Light Rain
8:29 PM 52.0 °F 50.0 °F 93% 29.71 in 10.0 mi South 3.5 mph - 0.06 in   Overcast
8:53 PM 52.0 °F 50.0 °F 93% 29.70 in 9.0 mi SSE 3.5 mph - 0.06 in Rain Light Rain
9:53 PM 52.0 °F 50.0 °F 93% 29.73 in 10.0 mi South 4.6 mph - 0.00 in   Overcast
10:00 PM 53.1 °F 50.0 °F 89% 29.73 in 10.0 mi South 5.8 mph - 0.01 in Rain Light Rain
10:37 PM 52.0 °F 50.0 °F 93% 29.72 in 10.0 mi Variable 4.6 mph - 0.01 in   Overcast
10:53 PM 53.1 °F 50.0 °F 89% 29.72 in 10.0 mi South 6.9 mph - 0.01 in   Mostly Cloudy